sensor_id;sensor_type;location;lat;lon;timestamp;temperature;humidity
66257;DHT22;53049;43.446;3.698;2023-07-29T00:01:23;22.70;99.90
66257;DHT22;53049;43.446;3.698;2023-07-29T00:03:48;22.60;99.90
66257;DHT22;53049;43.446;3.698;2023-07-29T00:06:14;22.60;99.90
66257;DHT22;53049;43.446;3.698;2023-07-29T00:08:40;22.70;99.90
66257;DHT22;53049;43.446;3.698;2023-07-29T00:11:05;22.60;99.90
66257;DHT22;53049;43.446;3.698;2023-07-29T00:13:31;22.50;99.90
66257;DHT22;53049;43.446;3.698;2023-07-29T00:15:57;22.50;99.90
66257;DHT22;53049;43.446;3.698;2023-07-29T00:18:22;22.50;99.90
66257;DHT22;53049;43.446;3.698;2023-07-29T00:20:49;22.50;99.90
66257;DHT22;53049;43.446;3.698;2023-07-29T00:23:16;22.40;99.90
66257;DHT22;53049;43.446;3.698;2023-07-29T00:25:44;22.40;99.90
66257;DHT22;53049;43.446;3.698;2023-07-29T00:28:11;22.40;99.90
66257;DHT22;53049;43.446;3.698;2023-07-29T00:30:37;22.40;99.90
66257;DHT22;53049;43.446;3.698;2023-07-29T00:33:03;22.40;99.90
66257;DHT22;53049;43.446;3.698;2023-07-29T00:35:28;22.40;99.90
66257;DHT22;53049;43.446;3.698;2023-07-29T00:37:54;22.40;99.90
66257;DHT22;53049;43.446;3.698;2023-07-29T00:40:21;22.40;99.90
66257;DHT22;53049;43.446;3.698;2023-07-29T00:42:47;22.30;99.90
66257;DHT22;53049;43.446;3.698;2023-07-29T00:45:13;22.30;99.90
66257;DHT22;53049;43.446;3.698;2023-07-29T00:47:39;22.30;99.90
66257;DHT22;53049;43.446;3.698;2023-07-29T00:50:05;22.20;99.90
66257;DHT22;53049;43.446;3.698;2023-07-29T00:52:32;22.30;99.90
66257;DHT22;53049;43.446;3.698;2023-07-29T00:54:57;22.30;99.90
66257;DHT22;53049;43.446;3.698;2023-07-29T00:57:23;22.20;99.90
66257;DHT22;53049;43.446;3.698;2023-07-29T00:59:51;22.20;99.90
66257;DHT22;53049;43.446;3.698;2023-07-29T01:02:16;22.20;99.90
66257;DHT22;53049;43.446;3.698;2023-07-29T01:04:42;22.20;99.90
66257;DHT22;53049;43.446;3.698;2023-07-29T01:07:18;22.20;99.90
66257;DHT22;53049;43.446;3.698;2023-07-29T01:13:04;22.30;99.90
66257;DHT22;53049;43.446;3.698;2023-07-29T01:15:43;22.20;99.90
66257;DHT22;53049;43.446;3.698;2023-07-29T01:18:16;22.30;99.90
66257;DHT22;53049;43.446;3.698;2023-07-29T01:20:44;22.30;99.90
66257;DHT22;53049;43.446;3.698;2023-07-29T01:23:11;22.30;99.90
66257;DHT22;53049;43.446;3.698;2023-07-29T01:25:37;22.30;99.90
66257;DHT22;53049;43.446;3.698;2023-07-29T01:28:02;22.30;99.90
66257;DHT22;53049;43.446;3.698;2023-07-29T01:30:38;22.20;99.90
66257;DHT22;53049;43.446;3.698;2023-07-29T01:33:22;22.20;99.90
66257;DHT22;53049;43.446;3.698;2023-07-29T01:36:08;22.10;99.90
66257;DHT22;53049;43.446;3.698;2023-07-29T01:38:38;22.10;99.90
66257;DHT22;53049;43.446;3.698;2023-07-29T01:41:07;22.10;99.90
66257;DHT22;53049;43.446;3.698;2023-07-29T01:43:33;22.10;99.90
66257;DHT22;53049;43.446;3.698;2023-07-29T01:46:00;22.00;99.90
66257;DHT22;53049;43.446;3.698;2023-07-29T01:48:26;22.10;99.90
66257;DHT22;53049;43.446;3.698;2023-07-29T01:50:53;22.00;99.90
66257;DHT22;53049;43.446;3.698;2023-07-29T01:53:18;22.00;99.90
66257;DHT22;53049;43.446;3.698;2023-07-29T01:55:44;22.00;99.90
66257;DHT22;53049;43.446;3.698;2023-07-29T01:58:10;21.90;99.90
66257;DHT22;53049;43.446;3.698;2023-07-29T02:00:36;21.90;99.90
66257;DHT22;53049;43.446;3.698;2023-07-29T02:03:02;21.90;99.90
66257;DHT22;53049;43.446;3.698;2023-07-29T02:05:27;22.00;99.90
66257;DHT22;53049;43.446;3.698;2023-07-29T02:07:53;21.90;99.90
66257;DHT22;53049;43.446;3.698;2023-07-29T02:10:19;22.00;99.90
66257;DHT22;53049;43.446;3.698;2023-07-29T02:12:45;22.10;99.90
66257;DHT22;53049;43.446;3.698;2023-07-29T02:15:10;22.10;99.90
66257;DHT22;53049;43.446;3.698;2023-07-29T02:17:36;22.20;99.90
66257;DHT22;53049;43.446;3.698;2023-07-29T02:20:03;22.30;99.90
66257;DHT22;53049;43.446;3.698;2023-07-29T02:22:29;22.40;99.90
66257;DHT22;53049;43.446;3.698;2023-07-29T02:24:55;22.50;99.90
66257;DHT22;53049;43.446;3.698;2023-07-29T02:27:20;22.50;99.90
66257;DHT22;53049;43.446;3.698;2023-07-29T02:29:46;22.60;99.90
66257;DHT22;53049;43.446;3.698;2023-07-29T02:32:12;22.60;99.90
66257;DHT22;53049;43.446;3.698;2023-07-29T02:34:37;22.70;99.90
66257;DHT22;53049;43.446;3.698;2023-07-29T02:37:03;22.70;99.90
66257;DHT22;53049;43.446;3.698;2023-07-29T02:39:29;22.70;99.90
66257;DHT22;53049;43.446;3.698;2023-07-29T02:41:55;22.80;99.90
66257;DHT22;53049;43.446;3.698;2023-07-29T02:44:21;22.80;99.90
66257;DHT22;53049;43.446;3.698;2023-07-29T02:46:47;22.80;99.90
66257;DHT22;53049;43.446;3.698;2023-07-29T02:49:12;22.80;99.90
66257;DHT22;53049;43.446;3.698;2023-07-29T02:51:38;22.90;99.90
66257;DHT22;53049;43.446;3.698;2023-07-29T02:54:04;22.80;99.90
66257;DHT22;53049;43.446;3.698;2023-07-29T02:56:29;22.90;99.90
66257;DHT22;53049;43.446;3.698;2023-07-29T02:58:56;22.90;99.90
66257;DHT22;53049;43.446;3.698;2023-07-29T03:01:22;22.90;99.90
66257;DHT22;53049;43.446;3.698;2023-07-29T03:03:50;22.90;99.90
66257;DHT22;53049;43.446;3.698;2023-07-29T03:06:16;22.90;99.90
66257;DHT22;53049;43.446;3.698;2023-07-29T03:08:41;22.90;99.90
66257;DHT22;53049;43.446;3.698;2023-07-29T03:11:14;23.00;99.90
66257;DHT22;53049;43.446;3.698;2023-07-29T03:13:41;23.00;99.90
66257;DHT22;53049;43.446;3.698;2023-07-29T03:16:14;22.90;99.90
66257;DHT22;53049;43.446;3.698;2023-07-29T03:18:41;22.80;99.90
66257;DHT22;53049;43.446;3.698;2023-07-29T03:21:07;22.70;99.90
66257;DHT22;53049;43.446;3.698;2023-07-29T03:23:34;22.60;99.90
66257;DHT22;53049;43.446;3.698;2023-07-29T03:26:01;22.70;99.90
66257;DHT22;53049;43.446;3.698;2023-07-29T03:28:31;22.80;99.90
66257;DHT22;53049;43.446;3.698;2023-07-29T03:30:57;22.80;99.90
66257;DHT22;53049;43.446;3.698;2023-07-29T03:33:23;22.90;99.90
66257;DHT22;53049;43.446;3.698;2023-07-29T03:35:49;22.90;99.90
66257;DHT22;53049;43.446;3.698;2023-07-29T03:38:15;23.00;99.90
66257;DHT22;53049;43.446;3.698;2023-07-29T03:40:41;23.00;99.90
66257;DHT22;53049;43.446;3.698;2023-07-29T03:43:07;23.00;99.90
66257;DHT22;53049;43.446;3.698;2023-07-29T03:45:34;23.00;99.90
66257;DHT22;53049;43.446;3.698;2023-07-29T03:47:59;22.90;99.90
66257;DHT22;53049;43.446;3.698;2023-07-29T03:50:25;22.90;99.90
66257;DHT22;53049;43.446;3.698;2023-07-29T03:52:51;22.90;99.90
66257;DHT22;53049;43.446;3.698;2023-07-29T03:55:17;22.90;99.90
66257;DHT22;53049;43.446;3.698;2023-07-29T03:57:43;22.90;99.90
66257;DHT22;53049;43.446;3.698;2023-07-29T04:00:08;22.90;99.90
66257;DHT22;53049;43.446;3.698;2023-07-29T04:02:35;22.80;99.90
66257;DHT22;53049;43.446;3.698;2023-07-29T04:05:04;22.80;1.00
66257;DHT22;53049;43.446;3.698;2023-07-29T04:07:31;22.80;1.00
66257;DHT22;53049;43.446;3.698;2023-07-29T04:09:56;22.70;1.00
66257;DHT22;53049;43.446;3.698;2023-07-29T04:12:23;22.70;1.00
66257;DHT22;53049;43.446;3.698;2023-07-29T04:14:49;22.60;1.00
66257;DHT22;53049;43.446;3.698;2023-07-29T04:17:15;22.70;1.00
66257;DHT22;53049;43.446;3.698;2023-07-29T04:19:40;22.70;1.00
66257;DHT22;53049;43.446;3.698;2023-07-29T04:22:06;22.70;1.00
66257;DHT22;53049;43.446;3.698;2023-07-29T04:24:32;22.60;1.00
66257;DHT22;53049;43.446;3.698;2023-07-29T04:26:57;22.60;1.00
66257;DHT22;53049;43.446;3.698;2023-07-29T04:29:23;22.70;1.00
66257;DHT22;53049;43.446;3.698;2023-07-29T04:31:50;22.70;1.00
66257;DHT22;53049;43.446;3.698;2023-07-29T04:34:16;22.60;1.00
66257;DHT22;53049;43.446;3.698;2023-07-29T04:36:42;22.50;1.00
66257;DHT22;53049;43.446;3.698;2023-07-29T04:39:07;22.40;1.00
66257;DHT22;53049;43.446;3.698;2023-07-29T04:41:33;22.40;1.00
66257;DHT22;53049;43.446;3.698;2023-07-29T04:43:59;22.30;1.00
66257;DHT22;53049;43.446;3.698;2023-07-29T04:46:24;22.30;1.00
66257;DHT22;53049;43.446;3.698;2023-07-29T04:48:50;22.30;1.00
66257;DHT22;53049;43.446;3.698;2023-07-29T04:51:16;22.50;1.00
66257;DHT22;53049;43.446;3.698;2023-07-29T04:53:41;22.60;1.00
66257;DHT22;53049;43.446;3.698;2023-07-29T04:56:07;22.50;1.00
66257;DHT22;53049;43.446;3.698;2023-07-29T04:58:32;22.60;1.00
66257;DHT22;53049;43.446;3.698;2023-07-29T05:01:01;22.60;1.00
66257;DHT22;53049;43.446;3.698;2023-07-29T05:03:27;22.70;1.00
66257;DHT22;53049;43.446;3.698;2023-07-29T05:05:52;22.70;1.00
66257;DHT22;53049;43.446;3.698;2023-07-29T05:08:20;22.70;1.00
66257;DHT22;53049;43.446;3.698;2023-07-29T05:10:49;22.70;1.00
66257;DHT22;53049;43.446;3.698;2023-07-29T05:13:15;22.70;1.00
66257;DHT22;53049;43.446;3.698;2023-07-29T05:15:41;22.80;1.00
66257;DHT22;53049;43.446;3.698;2023-07-29T05:18:06;22.80;1.00
66257;DHT22;53049;43.446;3.698;2023-07-29T05:20:32;22.80;1.00
66257;DHT22;53049;43.446;3.698;2023-07-29T05:22:58;22.80;1.00
66257;DHT22;53049;43.446;3.698;2023-07-29T05:25:23;22.80;1.00
66257;DHT22;53049;43.446;3.698;2023-07-29T05:27:49;22.80;1.00
66257;DHT22;53049;43.446;3.698;2023-07-29T05:30:15;22.80;1.00
66257;DHT22;53049;43.446;3.698;2023-07-29T05:32:40;22.90;1.00
66257;DHT22;53049;43.446;3.698;2023-07-29T05:35:06;22.90;1.00
66257;DHT22;53049;43.446;3.698;2023-07-29T05:37:32;22.90;1.00
66257;DHT22;53049;43.446;3.698;2023-07-29T05:39:58;22.90;1.00
66257;DHT22;53049;43.446;3.698;2023-07-29T05:42:24;22.90;1.00
66257;DHT22;53049;43.446;3.698;2023-07-29T05:44:49;23.00;1.00
66257;DHT22;53049;43.446;3.698;2023-07-29T05:47:15;23.00;1.00
66257;DHT22;53049;43.446;3.698;2023-07-29T05:49:41;23.10;1.00
66257;DHT22;53049;43.446;3.698;2023-07-29T05:52:07;23.10;1.00
66257;DHT22;53049;43.446;3.698;2023-07-29T05:54:33;23.20;1.00
66257;DHT22;53049;43.446;3.698;2023-07-29T05:56:58;23.20;1.00
66257;DHT22;53049;43.446;3.698;2023-07-29T05:59:24;23.20;1.00
66257;DHT22;53049;43.446;3.698;2023-07-29T06:01:49;23.20;1.00
66257;DHT22;53049;43.446;3.698;2023-07-29T06:04:15;23.20;1.00
66257;DHT22;53049;43.446;3.698;2023-07-29T06:06:41;23.30;1.00
66257;DHT22;53049;43.446;3.698;2023-07-29T06:09:06;23.30;1.00
66257;DHT22;53049;43.446;3.698;2023-07-29T06:11:32;23.40;1.00
66257;DHT22;53049;43.446;3.698;2023-07-29T06:13:58;23.40;1.00
66257;DHT22;53049;43.446;3.698;2023-07-29T06:16:23;23.40;1.00
66257;DHT22;53049;43.446;3.698;2023-07-29T06:18:49;23.30;1.00
66257;DHT22;53049;43.446;3.698;2023-07-29T06:21:14;23.20;1.00
66257;DHT22;53049;43.446;3.698;2023-07-29T06:23:46;23.10;1.00
66257;DHT22;53049;43.446;3.698;2023-07-29T06:26:14;23.10;99.90
66257;DHT22;53049;43.446;3.698;2023-07-29T06:28:40;23.00;99.90
66257;DHT22;53049;43.446;3.698;2023-07-29T06:31:05;23.00;99.90
66257;DHT22;53049;43.446;3.698;2023-07-29T06:33:31;23.00;99.90
66257;DHT22;53049;43.446;3.698;2023-07-29T06:35:57;23.00;99.90
66257;DHT22;53049;43.446;3.698;2023-07-29T06:38:23;23.10;99.90
66257;DHT22;53049;43.446;3.698;2023-07-29T06:40:49;23.10;99.90
66257;DHT22;53049;43.446;3.698;2023-07-29T06:43:14;23.20;99.90
66257;DHT22;53049;43.446;3.698;2023-07-29T06:45:40;23.20;99.90
66257;DHT22;53049;43.446;3.698;2023-07-29T06:48:05;23.40;99.90
66257;DHT22;53049;43.446;3.698;2023-07-29T06:50:31;23.50;1.00
66257;DHT22;53049;43.446;3.698;2023-07-29T06:52:57;23.60;1.00
66257;DHT22;53049;43.446;3.698;2023-07-29T06:55:22;23.70;1.00
66257;DHT22;53049;43.446;3.698;2023-07-29T06:57:48;23.70;1.00
66257;DHT22;53049;43.446;3.698;2023-07-29T07:00:14;23.70;1.00
66257;DHT22;53049;43.446;3.698;2023-07-29T07:02:39;23.80;1.00
66257;DHT22;53049;43.446;3.698;2023-07-29T07:05:05;23.70;1.00
66257;DHT22;53049;43.446;3.698;2023-07-29T07:07:31;23.80;1.00
66257;DHT22;53049;43.446;3.698;2023-07-29T07:09:56;23.80;1.00
66257;DHT22;53049;43.446;3.698;2023-07-29T07:12:22;23.70;1.00
66257;DHT22;53049;43.446;3.698;2023-07-29T07:14:48;23.70;1.00
66257;DHT22;53049;43.446;3.698;2023-07-29T07:17:13;23.80;1.00
66257;DHT22;53049;43.446;3.698;2023-07-29T07:19:39;23.80;1.00
66257;DHT22;53049;43.446;3.698;2023-07-29T07:22:05;23.90;1.00
66257;DHT22;53049;43.446;3.698;2023-07-29T07:24:30;23.90;99.90
66257;DHT22;53049;43.446;3.698;2023-07-29T07:26:56;24.00;99.90
66257;DHT22;53049;43.446;3.698;2023-07-29T07:29:22;23.90;99.90
66257;DHT22;53049;43.446;3.698;2023-07-29T07:31:52;23.90;99.90
66257;DHT22;53049;43.446;3.698;2023-07-29T07:34:19;23.90;99.90
66257;DHT22;53049;43.446;3.698;2023-07-29T07:36:45;23.80;99.90
66257;DHT22;53049;43.446;3.698;2023-07-29T07:39:10;23.90;99.90
66257;DHT22;53049;43.446;3.698;2023-07-29T07:41:36;24.00;99.90
66257;DHT22;53049;43.446;3.698;2023-07-29T07:44:01;24.00;99.90
66257;DHT22;53049;43.446;3.698;2023-07-29T07:46:28;24.00;99.90
66257;DHT22;53049;43.446;3.698;2023-07-29T07:48:54;24.00;99.90
66257;DHT22;53049;43.446;3.698;2023-07-29T07:51:19;24.10;99.90
66257;DHT22;53049;43.446;3.698;2023-07-29T07:53:45;24.10;99.90
66257;DHT22;53049;43.446;3.698;2023-07-29T07:56:11;24.20;99.90
66257;DHT22;53049;43.446;3.698;2023-07-29T07:58:37;24.30;99.90
66257;DHT22;53049;43.446;3.698;2023-07-29T08:01:07;24.30;99.90
66257;DHT22;53049;43.446;3.698;2023-07-29T08:03:33;24.40;99.90
66257;DHT22;53049;43.446;3.698;2023-07-29T08:05:59;25.30;99.90
66257;DHT22;53049;43.446;3.698;2023-07-29T08:08:28;25.90;99.90
66257;DHT22;53049;43.446;3.698;2023-07-29T08:10:54;27.00;99.90
66257;DHT22;53049;43.446;3.698;2023-07-29T08:13:22;26.50;99.90
66257;DHT22;53049;43.446;3.698;2023-07-29T08:15:49;26.10;99.90
66257;DHT22;53049;43.446;3.698;2023-07-29T08:18:15;28.00;99.90
66257;DHT22;53049;43.446;3.698;2023-07-29T08:20:51;26.80;99.90
66257;DHT22;53049;43.446;3.698;2023-07-29T08:23:16;26.20;99.90
66257;DHT22;53049;43.446;3.698;2023-07-29T08:25:42;26.90;99.90
66257;DHT22;53049;43.446;3.698;2023-07-29T08:28:07;27.90;99.90
66257;DHT22;53049;43.446;3.698;2023-07-29T08:30:33;30.90;99.90
66257;DHT22;53049;43.446;3.698;2023-07-29T08:32:59;31.60;99.90
66257;DHT22;53049;43.446;3.698;2023-07-29T08:35:24;33.90;99.90
66257;DHT22;53049;43.446;3.698;2023-07-29T08:37:50;33.10;99.90
66257;DHT22;53049;43.446;3.698;2023-07-29T08:40:15;30.60;99.90
66257;DHT22;53049;43.446;3.698;2023-07-29T08:42:42;30.00;99.90
66257;DHT22;53049;43.446;3.698;2023-07-29T08:45:11;29.80;99.90
66257;DHT22;53049;43.446;3.698;2023-07-29T08:47:37;29.60;99.90
66257;DHT22;53049;43.446;3.698;2023-07-29T08:50:03;29.30;99.90
66257;DHT22;53049;43.446;3.698;2023-07-29T08:52:29;29.30;99.90
66257;DHT22;53049;43.446;3.698;2023-07-29T08:54:58;28.80;99.90
66257;DHT22;53049;43.446;3.698;2023-07-29T08:57:23;28.10;99.90
66257;DHT22;53049;43.446;3.698;2023-07-29T08:59:49;27.70;99.90
66257;DHT22;53049;43.446;3.698;2023-07-29T09:02:15;27.60;99.90
66257;DHT22;53049;43.446;3.698;2023-07-29T09:04:42;27.10;99.90
66257;DHT22;53049;43.446;3.698;2023-07-29T09:07:08;26.90;99.90
66257;DHT22;53049;43.446;3.698;2023-07-29T09:09:35;27.40;99.90
66257;DHT22;53049;43.446;3.698;2023-07-29T09:12:00;27.80;99.90
66257;DHT22;53049;43.446;3.698;2023-07-29T09:14:26;28.60;99.90
66257;DHT22;53049;43.446;3.698;2023-07-29T09:16:53;29.00;99.90
66257;DHT22;53049;43.446;3.698;2023-07-29T09:19:19;28.70;99.90
66257;DHT22;53049;43.446;3.698;2023-07-29T09:21:46;29.20;99.90
66257;DHT22;53049;43.446;3.698;2023-07-29T09:24:16;29.40;99.90
66257;DHT22;53049;43.446;3.698;2023-07-29T09:26:49;29.10;99.90
66257;DHT22;53049;43.446;3.698;2023-07-29T09:29:15;29.50;99.90
66257;DHT22;53049;43.446;3.698;2023-07-29T09:31:41;29.80;99.90
66257;DHT22;53049;43.446;3.698;2023-07-29T09:34:06;29.50;99.90
66257;DHT22;53049;43.446;3.698;2023-07-29T09:36:33;28.90;99.90
66257;DHT22;53049;43.446;3.698;2023-07-29T09:38:59;28.20;99.90
66257;DHT22;53049;43.446;3.698;2023-07-29T09:41:29;28.00;99.90
66257;DHT22;53049;43.446;3.698;2023-07-29T09:44:01;28.10;99.90
66257;DHT22;53049;43.446;3.698;2023-07-29T09:46:37;28.20;99.90
66257;DHT22;53049;43.446;3.698;2023-07-29T09:49:07;28.60;99.90
66257;DHT22;53049;43.446;3.698;2023-07-29T09:51:40;28.70;99.90
66257;DHT22;53049;43.446;3.698;2023-07-29T09:54:06;29.00;99.90
66257;DHT22;53049;43.446;3.698;2023-07-29T09:56:32;28.60;99.90
66257;DHT22;53049;43.446;3.698;2023-07-29T09:58:57;28.50;99.90
66257;DHT22;53049;43.446;3.698;2023-07-29T10:01:24;28.30;99.90
66257;DHT22;53049;43.446;3.698;2023-07-29T10:03:50;28.40;99.90
66257;DHT22;53049;43.446;3.698;2023-07-29T10:06:17;28.90;99.90
66257;DHT22;53049;43.446;3.698;2023-07-29T10:08:44;28.40;99.90
66257;DHT22;53049;43.446;3.698;2023-07-29T10:11:11;28.30;99.90
66257;DHT22;53049;43.446;3.698;2023-07-29T10:13:38;29.10;99.90
66257;DHT22;53049;43.446;3.698;2023-07-29T10:16:04;30.20;99.90
66257;DHT22;53049;43.446;3.698;2023-07-29T10:18:31;30.50;99.90
66257;DHT22;53049;43.446;3.698;2023-07-29T10:20:58;30.20;99.90
66257;DHT22;53049;43.446;3.698;2023-07-29T10:23:25;30.10;99.90
66257;DHT22;53049;43.446;3.698;2023-07-29T10:26:03;29.70;99.90
66257;DHT22;53049;43.446;3.698;2023-07-29T10:28:32;29.50;99.90
66257;DHT22;53049;43.446;3.698;2023-07-29T10:30:58;29.10;99.90
66257;DHT22;53049;43.446;3.698;2023-07-29T10:33:25;29.50;99.90
66257;DHT22;53049;43.446;3.698;2023-07-29T10:35:52;30.10;99.90
66257;DHT22;53049;43.446;3.698;2023-07-29T10:38:19;29.70;99.90
66257;DHT22;53049;43.446;3.698;2023-07-29T10:40:51;29.70;99.90
66257;DHT22;53049;43.446;3.698;2023-07-29T10:43:23;30.00;99.90
66257;DHT22;53049;43.446;3.698;2023-07-29T10:45:49;29.80;99.90
66257;DHT22;53049;43.446;3.698;2023-07-29T10:48:51;29.70;99.90
66257;DHT22;53049;43.446;3.698;2023-07-29T10:51:36;29.50;99.90
66257;DHT22;53049;43.446;3.698;2023-07-29T10:54:11;29.40;99.90
66257;DHT22;53049;43.446;3.698;2023-07-29T10:56:40;29.30;99.90
66257;DHT22;53049;43.446;3.698;2023-07-29T11:01:40;29.20;99.90
66257;DHT22;53049;43.446;3.698;2023-07-29T11:17:44;29.30;99.90
66257;DHT22;53049;43.446;3.698;2023-07-29T11:20:10;29.30;99.90
66257;DHT22;53049;43.446;3.698;2023-07-29T11:22:37;29.30;99.90
66257;DHT22;53049;43.446;3.698;2023-07-29T11:25:04;29.30;99.90
66257;DHT22;53049;43.446;3.698;2023-07-29T11:27:31;29.20;99.90
66257;DHT22;53049;43.446;3.698;2023-07-29T11:30:01;29.10;99.90
66257;DHT22;53049;43.446;3.698;2023-07-29T11:32:27;29.00;99.90
66257;DHT22;53049;43.446;3.698;2023-07-29T11:34:53;29.10;99.90
66257;DHT22;53049;43.446;3.698;2023-07-29T11:37:19;29.20;99.90
66257;DHT22;53049;43.446;3.698;2023-07-29T11:39:47;29.20;99.90
66257;DHT22;53049;43.446;3.698;2023-07-29T11:42:15;29.30;99.90
66257;DHT22;53049;43.446;3.698;2023-07-29T11:44:41;29.10;99.90
66257;DHT22;53049;43.446;3.698;2023-07-29T11:47:08;29.10;99.90
66257;DHT22;53049;43.446;3.698;2023-07-29T11:49:39;28.90;99.90
66257;DHT22;53049;43.446;3.698;2023-07-29T11:52:07;28.90;99.90
66257;DHT22;53049;43.446;3.698;2023-07-29T11:54:35;28.80;99.90
66257;DHT22;53049;43.446;3.698;2023-07-29T11:57:01;28.90;99.90
66257;DHT22;53049;43.446;3.698;2023-07-29T11:59:27;28.90;99.90
66257;DHT22;53049;43.446;3.698;2023-07-29T12:01:53;29.00;99.90
66257;DHT22;53049;43.446;3.698;2023-07-29T12:04:19;29.00;99.90
66257;DHT22;53049;43.446;3.698;2023-07-29T12:06:45;29.00;99.90
66257;DHT22;53049;43.446;3.698;2023-07-29T12:09:12;29.00;99.90
66257;DHT22;53049;43.446;3.698;2023-07-29T12:11:39;29.00;99.90
66257;DHT22;53049;43.446;3.698;2023-07-29T12:14:07;29.00;99.90
66257;DHT22;53049;43.446;3.698;2023-07-29T12:16:41;28.90;99.90
66257;DHT22;53049;43.446;3.698;2023-07-29T12:19:06;29.00;99.90
66257;DHT22;53049;43.446;3.698;2023-07-29T12:21:33;29.10;99.90
66257;DHT22;53049;43.446;3.698;2023-07-29T12:23:58;29.10;99.90
66257;DHT22;53049;43.446;3.698;2023-07-29T12:26:28;29.20;99.90
66257;DHT22;53049;43.446;3.698;2023-07-29T12:28:53;29.00;99.90
66257;DHT22;53049;43.446;3.698;2023-07-29T12:31:19;28.90;99.90
66257;DHT22;53049;43.446;3.698;2023-07-29T12:33:45;28.90;99.90
66257;DHT22;53049;43.446;3.698;2023-07-29T12:36:10;28.90;99.90
66257;DHT22;53049;43.446;3.698;2023-07-29T12:38:36;29.00;99.90
66257;DHT22;53049;43.446;3.698;2023-07-29T12:41:01;29.00;99.90
66257;DHT22;53049;43.446;3.698;2023-07-29T12:43:27;28.90;99.90
66257;DHT22;53049;43.446;3.698;2023-07-29T12:45:53;28.90;99.90
66257;DHT22;53049;43.446;3.698;2023-07-29T12:48:18;28.90;99.90
66257;DHT22;53049;43.446;3.698;2023-07-29T12:50:44;29.00;99.90
66257;DHT22;53049;43.446;3.698;2023-07-29T12:53:10;29.00;99.90
66257;DHT22;53049;43.446;3.698;2023-07-29T12:55:36;29.00;99.90
66257;DHT22;53049;43.446;3.698;2023-07-29T12:58:02;28.90;99.90
66257;DHT22;53049;43.446;3.698;2023-07-29T13:00:28;28.90;99.90
66257;DHT22;53049;43.446;3.698;2023-07-29T13:02:54;28.90;99.90
66257;DHT22;53049;43.446;3.698;2023-07-29T13:05:19;28.90;99.90
66257;DHT22;53049;43.446;3.698;2023-07-29T13:07:45;28.90;99.90
66257;DHT22;53049;43.446;3.698;2023-07-29T13:10:11;28.90;99.90
66257;DHT22;53049;43.446;3.698;2023-07-29T13:12:38;28.90;99.90
66257;DHT22;53049;43.446;3.698;2023-07-29T13:15:04;28.90;99.90
66257;DHT22;53049;43.446;3.698;2023-07-29T13:17:30;28.90;99.90
66257;DHT22;53049;43.446;3.698;2023-07-29T13:19:56;28.90;99.90
66257;DHT22;53049;43.446;3.698;2023-07-29T13:22:21;28.80;99.90
66257;DHT22;53049;43.446;3.698;2023-07-29T13:24:47;28.80;99.90
66257;DHT22;53049;43.446;3.698;2023-07-29T13:27:13;28.70;99.90
66257;DHT22;53049;43.446;3.698;2023-07-29T13:29:39;28.70;99.90
66257;DHT22;53049;43.446;3.698;2023-07-29T13:32:06;28.80;99.90
66257;DHT22;53049;43.446;3.698;2023-07-29T13:34:32;28.80;99.90
66257;DHT22;53049;43.446;3.698;2023-07-29T13:36:59;28.80;99.90
66257;DHT22;53049;43.446;3.698;2023-07-29T13:39:25;28.70;99.90
66257;DHT22;53049;43.446;3.698;2023-07-29T13:41:51;28.80;99.90
66257;DHT22;53049;43.446;3.698;2023-07-29T13:44:16;28.90;99.90
66257;DHT22;53049;43.446;3.698;2023-07-29T13:46:42;28.80;99.90
66257;DHT22;53049;43.446;3.698;2023-07-29T13:49:07;28.80;99.90
66257;DHT22;53049;43.446;3.698;2023-07-29T13:51:33;28.80;99.90
66257;DHT22;53049;43.446;3.698;2023-07-29T13:53:59;28.70;99.90
66257;DHT22;53049;43.446;3.698;2023-07-29T13:56:24;28.80;99.90
66257;DHT22;53049;43.446;3.698;2023-07-29T13:58:50;28.70;99.90
66257;DHT22;53049;43.446;3.698;2023-07-29T14:01:16;28.60;99.90
66257;DHT22;53049;43.446;3.698;2023-07-29T14:03:44;28.50;99.90
66257;DHT22;53049;43.446;3.698;2023-07-29T14:06:10;28.50;99.90
66257;DHT22;53049;43.446;3.698;2023-07-29T14:08:36;28.60;99.90
66257;DHT22;53049;43.446;3.698;2023-07-29T14:11:01;28.50;99.90
66257;DHT22;53049;43.446;3.698;2023-07-29T14:13:27;28.60;99.90
66257;DHT22;53049;43.446;3.698;2023-07-29T14:15:52;28.60;99.90
66257;DHT22;53049;43.446;3.698;2023-07-29T14:18:18;28.50;99.90
66257;DHT22;53049;43.446;3.698;2023-07-29T14:20:44;28.50;99.90
66257;DHT22;53049;43.446;3.698;2023-07-29T14:23:09;28.50;99.90
66257;DHT22;53049;43.446;3.698;2023-07-29T14:25:35;28.40;99.90
66257;DHT22;53049;43.446;3.698;2023-07-29T14:28:01;28.50;99.90
66257;DHT22;53049;43.446;3.698;2023-07-29T14:30:26;28.50;99.90
66257;DHT22;53049;43.446;3.698;2023-07-29T14:32:52;28.50;99.90
66257;DHT22;53049;43.446;3.698;2023-07-29T14:35:17;28.50;99.90
66257;DHT22;53049;43.446;3.698;2023-07-29T14:37:43;28.40;99.90
66257;DHT22;53049;43.446;3.698;2023-07-29T14:40:09;28.50;99.90
66257;DHT22;53049;43.446;3.698;2023-07-29T14:42:34;28.50;99.90
66257;DHT22;53049;43.446;3.698;2023-07-29T14:45:00;28.50;99.90
66257;DHT22;53049;43.446;3.698;2023-07-29T14:47:25;28.50;99.90
66257;DHT22;53049;43.446;3.698;2023-07-29T14:49:51;28.50;99.90
66257;DHT22;53049;43.446;3.698;2023-07-29T14:52:17;28.40;99.90
66257;DHT22;53049;43.446;3.698;2023-07-29T14:54:42;28.40;99.90
66257;DHT22;53049;43.446;3.698;2023-07-29T14:57:10;28.40;99.90
66257;DHT22;53049;43.446;3.698;2023-07-29T14:59:35;28.40;99.90
66257;DHT22;53049;43.446;3.698;2023-07-29T15:02:01;28.40;99.90
66257;DHT22;53049;43.446;3.698;2023-07-29T15:04:27;28.40;99.90
66257;DHT22;53049;43.446;3.698;2023-07-29T15:06:52;28.40;99.90
66257;DHT22;53049;43.446;3.698;2023-07-29T15:09:18;28.40;99.90
66257;DHT22;53049;43.446;3.698;2023-07-29T15:11:43;28.40;99.90
66257;DHT22;53049;43.446;3.698;2023-07-29T15:14:09;28.30;99.90
66257;DHT22;53049;43.446;3.698;2023-07-29T15:16:35;28.30;99.90
66257;DHT22;53049;43.446;3.698;2023-07-29T15:19:02;28.30;99.90
66257;DHT22;53049;43.446;3.698;2023-07-29T15:21:28;28.40;99.90
66257;DHT22;53049;43.446;3.698;2023-07-29T15:23:54;28.40;99.90
66257;DHT22;53049;43.446;3.698;2023-07-29T15:26:19;28.30;99.90
66257;DHT22;53049;43.446;3.698;2023-07-29T15:28:45;28.40;99.90
66257;DHT22;53049;43.446;3.698;2023-07-29T15:31:12;28.40;99.90
66257;DHT22;53049;43.446;3.698;2023-07-29T15:33:38;28.40;99.90
66257;DHT22;53049;43.446;3.698;2023-07-29T15:36:04;28.30;99.90
66257;DHT22;53049;43.446;3.698;2023-07-29T15:38:30;28.40;99.90
66257;DHT22;53049;43.446;3.698;2023-07-29T15:40:56;28.30;99.90
66257;DHT22;53049;43.446;3.698;2023-07-29T15:43:22;28.20;99.90
66257;DHT22;53049;43.446;3.698;2023-07-29T15:45:48;28.20;99.90
66257;DHT22;53049;43.446;3.698;2023-07-29T15:48:14;28.20;99.90